createdAt,value
2022-11-25T00:00:01.091Z,4.37
2022-11-25T00:02:28.983Z,4.20
2022-11-25T00:04:59.148Z,3.97
2022-11-25T00:07:30.950Z,4.23
2022-11-25T00:09:59.030Z,5.67
2022-11-25T00:12:28.424Z,4.80
2022-11-25T00:15:00.127Z,4.43
2022-11-25T00:17:27.937Z,5.17
2022-11-25T00:19:56.416Z,3.83
2022-11-25T00:22:24.135Z,4.30
2022-11-25T00:24:51.966Z,3.85
2022-11-25T00:27:19.922Z,4.07
2022-11-25T00:29:47.893Z,4.67
2022-11-25T00:32:17.241Z,4.80
2022-11-25T00:34:45.248Z,4.97
2022-11-25T00:37:13.243Z,4.37
2022-11-25T00:39:45.250Z,4.30
2022-11-25T00:42:30.572Z,5.43
2022-11-25T00:44:58.528Z,4.57
2022-11-25T00:47:29.560Z,4.55
2022-11-25T00:49:59.265Z,3.97
2022-11-25T00:52:28.366Z,4.67
2022-11-25T00:54:57.596Z,4.33
2022-11-25T00:57:25.661Z,3.77
2022-11-25T00:59:58.532Z,4.87
2022-11-25T01:02:29.056Z,5.90
2022-11-25T01:04:58.454Z,4.57
2022-11-25T01:07:26.031Z,5.63
2022-11-25T01:09:53.649Z,4.40
2022-11-25T01:12:21.128Z,5.17
2022-11-25T01:14:48.707Z,4.25
2022-11-25T01:17:16.624Z,5.13
2022-11-25T01:19:45.700Z,5.13
2022-11-25T01:22:13.193Z,5.93
2022-11-25T01:24:40.737Z,4.88
2022-11-25T01:27:08.235Z,5.80
2022-11-25T01:29:35.725Z,5.63
2022-11-25T01:32:03.347Z,5.03
2022-11-25T01:34:32.456Z,5.20
2022-11-25T01:37:01.309Z,5.30
2022-11-25T01:39:32.783Z,6.00
2022-11-25T01:42:00.823Z,4.50
2022-11-25T01:44:29.538Z,5.40
2022-11-25T01:47:01.607Z,5.90
2022-11-25T01:49:34.605Z,4.77
2022-11-25T01:52:10.590Z,5.57
2022-11-25T01:54:42.007Z,5.07
2022-11-25T01:57:12.930Z,4.73
2022-11-25T01:59:45.986Z,5.13
2022-11-25T02:02:14.441Z,5.60
2022-11-25T02:04:43.158Z,5.40
2022-11-25T02:07:15.941Z,4.72
2022-11-25T02:09:43.834Z,4.70
2022-11-25T02:12:11.757Z,3.83
2022-11-25T02:14:39.468Z,4.60
2022-11-25T02:17:07.203Z,5.03
2022-11-25T02:19:44.419Z,4.53
2022-11-25T02:22:22.629Z,3.70
2022-11-25T02:24:52.925Z,4.23
2022-11-25T02:27:24.586Z,4.17
2022-11-25T02:29:52.736Z,4.20
2022-11-25T02:32:23.084Z,5.05
2022-11-25T02:34:50.880Z,4.90
2022-11-25T02:37:20.415Z,4.67
2022-11-25T02:39:49.131Z,3.70
2022-11-25T02:42:18.085Z,5.10
2022-11-25T02:44:48.270Z,4.23
2022-11-25T02:47:16.129Z,5.30
2022-11-25T02:49:43.629Z,4.87
2022-11-25T02:52:11.163Z,4.25
2022-11-25T02:54:38.793Z,4.35
2022-11-25T02:57:06.360Z,4.70
2022-11-25T02:59:33.869Z,4.45
2022-11-25T03:02:02.931Z,4.07
2022-11-25T03:04:30.431Z,4.40
2022-11-25T03:06:57.953Z,3.60
2022-11-25T03:09:25.503Z,4.60
2022-11-25T03:12:10.554Z,4.53
2022-11-25T03:14:38.133Z,4.45
2022-11-25T03:17:07.068Z,5.10
2022-11-25T03:19:34.568Z,4.40
2022-11-25T03:22:02.100Z,4.50
2022-11-25T03:24:29.740Z,4.03
2022-11-25T03:26:57.300Z,4.68
2022-11-25T03:29:26.728Z,4.80
2022-11-25T03:31:54.280Z,3.93
2022-11-25T03:34:23.141Z,4.90
2022-11-25T03:36:50.757Z,4.17
2022-11-25T03:39:18.310Z,3.60
2022-11-25T03:41:45.845Z,4.33
2022-11-25T03:44:13.392Z,4.20
2022-11-25T03:46:40.921Z,5.37
2022-11-25T03:49:08.446Z,5.00
2022-11-25T03:51:37.623Z,4.77
2022-11-25T03:54:05.350Z,5.57
2022-11-25T03:56:32.930Z,4.93
2022-11-25T03:59:00.405Z,4.00
2022-11-25T04:01:27.988Z,3.90
2022-11-25T04:03:55.585Z,5.37
2022-11-25T04:06:23.929Z,4.27
2022-11-25T04:08:52.882Z,5.68
2022-11-25T04:11:20.393Z,5.60
2022-11-25T04:13:46.955Z,5.80
2022-11-25T04:16:21.739Z,5.00
2022-11-25T04:18:49.521Z,5.13
2022-11-25T04:21:17.887Z,5.20
2022-11-25T04:23:45.463Z,4.70
2022-11-25T04:26:14.335Z,5.20
2022-11-25T04:28:41.874Z,5.77
2022-11-25T04:31:10.115Z,5.00
2022-11-25T04:33:37.697Z,5.43
2022-11-25T04:36:05.676Z,4.40
2022-11-25T04:38:33.210Z,5.37
2022-11-25T04:41:00.725Z,4.50
2022-11-25T04:43:29.679Z,3.97
2022-11-25T04:46:26.905Z,4.53
2022-11-25T04:48:44.806Z,3.80
2022-11-25T04:51:12.397Z,4.47
2022-11-25T04:53:39.954Z,4.47
2022-11-25T04:56:08.160Z,4.40
2022-11-25T04:58:54.503Z,4.43
2022-11-25T05:01:22.123Z,5.95
2022-11-25T05:03:56.020Z,5.20
2022-11-25T05:06:23.820Z,5.70
2022-11-25T05:08:51.480Z,4.80
2022-11-25T05:11:19.319Z,4.25
2022-11-25T05:13:48.344Z,4.73
2022-11-25T05:16:15.880Z,4.93
2022-11-25T05:18:43.378Z,5.77
2022-11-25T05:21:11.160Z,5.60
2022-11-25T05:23:38.666Z,4.53
2022-11-25T05:26:06.435Z,4.50
2022-11-25T05:28:33.994Z,4.97
2022-11-25T05:31:02.958Z,4.47
2022-11-25T05:33:30.602Z,5.00
2022-11-25T05:35:59.624Z,5.67
2022-11-25T05:38:27.758Z,5.17
2022-11-25T05:40:55.610Z,5.17
2022-11-25T05:43:23.186Z,5.53
2022-11-25T05:45:50.777Z,4.80
2022-11-25T05:48:19.718Z,6.60
2022-11-25T05:50:47.271Z,6.00
2022-11-25T05:53:17.186Z,6.10
2022-11-25T05:55:44.858Z,5.40
2022-11-25T05:58:12.389Z,6.27
2022-11-25T06:00:39.925Z,6.83
2022-11-25T06:03:07.564Z,6.30
2022-11-25T06:05:36.953Z,6.03
2022-11-25T06:08:04.809Z,5.70
2022-11-25T06:10:32.366Z,5.63
2022-11-25T06:13:00.033Z,5.53
2022-11-25T06:15:27.534Z,5.63
2022-11-25T06:17:55.076Z,5.53
2022-11-25T06:20:22.631Z,5.80
2022-11-25T06:22:51.503Z,4.43
2022-11-25T06:25:19.248Z,6.60
2022-11-25T06:28:11.492Z,5.50
2022-11-25T06:30:34.282Z,4.97
2022-11-25T06:33:01.798Z,5.10
2022-11-25T06:35:29.311Z,4.90
2022-11-25T06:37:59.133Z,5.13
2022-11-25T06:40:26.872Z,5.33
2022-11-25T06:42:54.364Z,5.20
2022-11-25T06:45:21.874Z,4.80
2022-11-25T06:47:49.420Z,5.37
2022-11-25T06:50:17.054Z,5.13
2022-11-25T06:52:44.544Z,5.93
2022-11-25T06:55:13.419Z,5.57
2022-11-25T06:57:40.914Z,5.07
2022-11-25T07:00:09.692Z,5.07
2022-11-25T07:02:42.867Z,8.17
2022-11-25T07:05:12.957Z,8.50
2022-11-25T07:07:40.597Z,7.50
2022-11-25T07:10:09.547Z,5.00
2022-11-25T07:12:38.464Z,5.93
2022-11-25T07:15:07.292Z,6.07
2022-11-25T07:17:34.804Z,6.37
2022-11-25T07:20:02.397Z,5.53
2022-11-25T07:22:29.897Z,6.03
2022-11-25T07:24:57.417Z,5.93
2022-11-25T07:27:24.905Z,6.67
2022-11-25T07:30:29.034Z,5.60
2022-11-25T07:32:41.278Z,6.57
2022-11-25T07:35:09.326Z,6.23
2022-11-25T07:37:36.875Z,5.30
2022-11-25T07:40:05.078Z,5.50
2022-11-25T07:42:33.120Z,5.37
2022-11-25T07:45:01.987Z,6.07
2022-11-25T07:47:29.513Z,5.40
2022-11-25T07:49:57.426Z,5.77
2022-11-25T07:52:24.892Z,5.40
2022-11-25T07:54:53.990Z,7.80
2022-11-25T07:57:21.499Z,6.93
2022-11-25T07:59:49.036Z,7.93
2022-11-25T08:02:18.002Z,5.50
2022-11-25T08:04:45.781Z,5.10
2022-11-25T08:07:13.376Z,5.93
2022-11-25T08:09:40.931Z,4.70
2022-11-25T08:12:08.566Z,5.70
2022-11-25T08:14:36.482Z,5.63
2022-11-25T08:17:05.988Z,7.00
2022-11-25T08:19:35.973Z,5.60
2022-11-25T08:22:03.657Z,4.80
2022-11-25T08:24:34.497Z,6.40
2022-11-25T08:27:02.354Z,6.00
2022-11-25T08:29:29.921Z,6.60
2022-11-25T08:31:58.380Z,6.00
2022-11-25T08:34:26.457Z,7.30
2022-11-25T08:36:55.419Z,7.13
2022-11-25T08:42:11.437Z,7.20
2022-11-25T08:44:38.991Z,8.70
2022-11-25T08:47:06.538Z,9.07
2022-11-25T08:49:40.503Z,8.83
2022-11-25T08:52:11.260Z,7.63
2022-11-25T08:54:38.879Z,8.37
2022-11-25T08:57:06.401Z,8.43
2022-11-25T08:59:34.130Z,8.27
2022-11-25T09:02:02.124Z,7.73
2022-11-25T09:04:33.756Z,8.03
2022-11-25T09:07:01.683Z,7.33
2022-11-25T09:09:30.624Z,7.13
2022-11-25T09:11:58.238Z,8.67
2022-11-25T09:14:25.834Z,7.27
2022-11-25T09:16:53.595Z,6.97
2022-11-25T09:19:21.508Z,8.27
2022-11-25T09:21:49.127Z,7.80
2022-11-25T09:24:16.709Z,8.20
2022-11-25T09:26:45.962Z,13.30
2022-11-25T09:29:14.753Z,12.90
2022-11-25T09:31:42.552Z,6.50
2022-11-25T09:34:10.405Z,10.67
2022-11-25T09:36:38.511Z,7.80
2022-11-25T09:39:06.287Z,6.40
2022-11-25T09:42:07.499Z,6.07
2022-11-25T09:45:05.088Z,6.93
2022-11-25T09:47:45.210Z,9.10
2022-11-25T09:50:18.687Z,6.47
2022-11-25T09:52:54.480Z,15.40
2022-11-25T09:55:24.266Z,8.10
2022-11-25T09:58:00.478Z,7.37
2022-11-25T10:00:33.705Z,9.50
2022-11-25T10:03:05.536Z,14.53
2022-11-25T10:05:36.521Z,29.40
2022-11-25T10:08:10.657Z,7.60
2022-11-25T10:10:42.955Z,7.77
2022-11-25T10:13:18.526Z,6.03
2022-11-25T10:15:48.128Z,6.87
2022-11-25T10:18:21.242Z,6.83
2022-11-25T10:20:51.179Z,7.87
2022-11-25T10:23:27.853Z,8.03
2022-11-25T10:25:58.836Z,7.07
2022-11-25T10:28:32.794Z,8.00
2022-11-25T10:31:02.962Z,7.80
2022-11-25T10:33:33.710Z,6.40
2022-11-25T10:36:06.035Z,6.60
2022-11-25T10:38:41.343Z,7.53
2022-11-25T10:41:10.939Z,6.40
2022-11-25T10:43:39.794Z,6.70
2022-11-25T10:46:12.133Z,6.67
2022-11-25T10:48:50.117Z,7.13
2022-11-25T10:51:33.076Z,5.97
2022-11-25T10:54:18.732Z,7.23
2022-11-25T10:56:54.062Z,6.47
2022-11-25T10:59:28.167Z,7.53
2022-11-25T11:02:14.409Z,6.73
2022-11-25T11:04:52.319Z,7.07
2022-11-25T11:07:19.905Z,6.27
2022-11-25T11:09:48.712Z,7.73
2022-11-25T11:12:21.091Z,5.93
2022-11-25T11:14:50.318Z,6.87
2022-11-25T11:17:31.922Z,6.73
2022-11-25T11:20:14.617Z,6.20
2022-11-25T11:22:47.892Z,6.47
2022-11-25T11:25:27.505Z,6.87
2022-11-25T11:27:55.630Z,4.87
2022-11-25T11:30:26.680Z,6.07
2022-11-25T11:33:03.782Z,6.33
2022-11-25T11:35:49.430Z,6.00
2022-11-25T11:38:27.507Z,5.47
2022-11-25T11:40:58.900Z,6.17
2022-11-25T11:43:51.126Z,5.87
2022-11-25T11:46:31.930Z,6.07
2022-11-25T11:49:06.946Z,5.10
2022-11-25T11:51:41.487Z,5.20
2022-11-25T11:54:12.215Z,6.40
2022-11-25T11:56:41.703Z,6.03
2022-11-25T11:59:59.503Z,5.70
2022-11-25T12:02:37.301Z,6.37
2022-11-25T12:05:14.664Z,5.53
2022-11-25T12:07:48.018Z,5.00
2022-11-25T12:10:23.540Z,5.43
2022-11-25T12:12:54.509Z,6.57
2022-11-25T12:15:36.152Z,5.63
2022-11-25T12:18:12.707Z,5.83
2022-11-25T12:20:45.537Z,6.30
2022-11-25T12:23:17.612Z,5.57
2022-11-25T12:25:46.281Z,6.10
2022-11-25T12:28:18.258Z,6.53
2022-11-25T12:31:01.887Z,5.17
2022-11-25T12:33:41.765Z,5.40
2022-11-25T12:36:11.733Z,6.23
2022-11-25T12:38:43.372Z,6.70
2022-11-25T12:41:20.625Z,5.27
2022-11-25T12:43:51.290Z,5.60
2022-11-25T12:46:24.753Z,5.27
2022-11-25T12:48:54.837Z,4.60
2022-11-25T12:51:47.671Z,5.07
2022-11-25T12:54:29.120Z,5.37
2022-11-25T12:57:16.928Z,6.13
2022-11-25T13:00:17.527Z,5.80
2022-11-25T13:03:27.860Z,5.97
2022-11-25T13:06:02.411Z,5.40
2022-11-25T13:08:46.055Z,5.50
2022-11-25T13:11:36.036Z,5.50
2022-11-25T13:14:07.958Z,4.67
2022-11-25T13:16:36.453Z,6.23
2022-11-25T13:19:11.647Z,5.53
2022-11-25T13:21:57.068Z,4.57
2022-11-25T13:24:35.001Z,5.30
2022-11-25T13:27:05.105Z,4.80
2022-11-25T13:30:09.774Z,5.00
2022-11-25T13:32:40.178Z,5.30
2022-11-25T13:35:35.707Z,5.10
2022-11-25T13:38:31.848Z,4.53
2022-11-25T13:41:00.546Z,4.40
2022-11-25T13:43:28.281Z,4.10
2022-11-25T13:45:56.696Z,4.60
2022-11-25T13:48:25.978Z,5.10
2022-11-25T13:51:15.570Z,5.17
2022-11-25T13:53:51.933Z,4.37
2022-11-25T13:56:28.090Z,4.73
2022-11-25T13:59:36.641Z,4.47
2022-11-25T14:02:32.257Z,4.30
2022-11-25T14:05:05.736Z,4.77
2022-11-25T14:07:40.620Z,4.70
2022-11-25T14:10:26.968Z,4.10
2022-11-25T14:13:03.213Z,3.57
2022-11-25T14:15:34.252Z,4.23
2022-11-25T14:18:51.219Z,3.20
2022-11-25T14:21:27.627Z,4.77
2022-11-25T14:24:08.940Z,3.83
2022-11-25T14:26:55.619Z,3.70
2022-11-25T14:29:26.114Z,4.57
2022-11-25T14:31:57.063Z,3.67
2022-11-25T14:34:28.787Z,3.67
2022-11-25T14:37:04.699Z,6.53
2022-11-25T14:39:35.233Z,4.20
2022-11-25T14:42:07.151Z,4.90
2022-11-25T14:44:39.532Z,3.10
2022-11-25T14:47:08.434Z,4.93
2022-11-25T14:52:43.772Z,3.60
2022-11-25T14:55:12.808Z,3.80
2022-11-25T14:57:45.198Z,4.00
2022-11-25T15:00:15.374Z,3.40
2022-11-25T15:02:54.020Z,2.90
2022-11-25T15:05:23.697Z,2.77
2022-11-25T15:07:58.676Z,3.80
2022-11-25T15:10:39.243Z,3.07
2022-11-25T15:13:13.440Z,4.93
2022-11-25T15:15:41.108Z,4.10
2022-11-25T15:18:11.347Z,4.47
2022-11-25T15:20:38.899Z,4.40
2022-11-25T15:23:07.067Z,4.63
2022-11-25T15:25:34.579Z,4.87
2022-11-25T15:28:02.435Z,4.63
2022-11-25T15:30:31.317Z,4.77
2022-11-25T15:32:59.402Z,4.27
2022-11-25T15:35:28.090Z,4.00
2022-11-25T15:37:55.623Z,5.97
2022-11-25T15:40:36.676Z,5.43
2022-11-25T15:43:07.264Z,5.43
2022-11-25T15:45:39.312Z,4.87
2022-11-25T15:48:15.530Z,4.10
2022-11-25T15:50:43.084Z,4.60
2022-11-25T15:53:25.626Z,5.30
2022-11-25T15:56:00.694Z,5.30
2022-11-25T15:58:28.481Z,5.00
2022-11-25T16:01:08.047Z,5.23
2022-11-25T16:03:36.064Z,5.43
2022-11-25T16:06:04.128Z,4.53
2022-11-25T16:08:34.902Z,5.33
2022-11-25T16:11:15.303Z,4.80
2022-11-25T16:13:42.868Z,5.57
2022-11-25T16:16:25.510Z,6.00
2022-11-25T16:19:15.305Z,6.10
2022-11-25T16:21:45.586Z,5.47
2022-11-25T16:24:20.965Z,5.37
2022-11-25T16:26:52.411Z,5.17
2022-11-25T16:29:21.560Z,4.60
2022-11-25T16:31:50.509Z,4.93
2022-11-25T16:34:20.517Z,5.00
2022-11-25T16:36:48.150Z,4.80
2022-11-25T16:39:15.656Z,4.47
2022-11-25T16:41:45.331Z,5.43
2022-11-25T16:44:18.694Z,5.53
2022-11-25T16:46:46.643Z,5.10
2022-11-25T16:49:16.762Z,5.17
2022-11-25T16:51:44.509Z,5.23
2022-11-25T16:54:12.422Z,5.70
2022-11-25T16:56:41.612Z,4.13
2022-11-25T16:59:12.099Z,4.37
2022-11-25T17:01:39.750Z,4.40
2022-11-25T17:04:08.085Z,4.50
2022-11-25T17:06:37.247Z,3.83
2022-11-25T17:09:05.066Z,5.37
2022-11-25T17:11:35.269Z,4.80
2022-11-25T17:14:05.026Z,4.10
2022-11-25T17:16:32.908Z,5.40
2022-11-25T17:19:01.293Z,5.50
2022-11-25T17:21:29.130Z,4.67
2022-11-25T17:24:02.599Z,4.30
2022-11-25T17:26:36.150Z,5.60
2022-11-25T17:29:05.531Z,5.03
2022-11-25T17:31:33.914Z,5.17
2022-11-25T17:34:01.454Z,5.50
2022-11-25T17:36:28.973Z,4.77
2022-11-25T17:38:57.812Z,4.13
2022-11-25T17:41:26.736Z,5.37
2022-11-25T17:43:54.824Z,4.97
2022-11-25T17:46:24.687Z,4.93
2022-11-25T17:48:52.326Z,5.20
2022-11-25T17:51:19.897Z,5.53
2022-11-25T17:53:48.063Z,4.53
2022-11-25T17:56:24.046Z,4.97
2022-11-25T17:58:52.097Z,4.90
2022-11-25T18:01:20.133Z,4.27
2022-11-25T18:03:49.364Z,4.60
2022-11-25T18:06:16.938Z,5.77
2022-11-25T18:08:44.448Z,5.30
2022-11-25T18:11:16.771Z,4.30
2022-11-25T18:13:47.221Z,5.23
2022-11-25T18:16:16.133Z,4.77
2022-11-25T18:18:43.681Z,6.20
2022-11-25T18:21:12.736Z,5.50
2022-11-25T18:23:40.297Z,6.77
2022-11-25T18:26:11.678Z,5.60
2022-11-25T18:28:39.538Z,5.20
2022-11-25T18:31:08.489Z,6.93
2022-11-25T18:33:36.060Z,6.07
2022-11-25T18:36:03.612Z,6.83
2022-11-25T18:38:31.132Z,5.60
2022-11-25T18:40:59.268Z,5.40
2022-11-25T18:43:27.841Z,5.40
2022-11-25T18:45:55.814Z,5.70
2022-11-25T18:48:26.379Z,6.97
2022-11-25T18:50:57.300Z,6.40
2022-11-25T18:53:25.575Z,4.63
2022-11-25T18:55:53.118Z,4.67
2022-11-25T18:58:22.714Z,5.10
2022-11-25T19:00:51.858Z,5.70
2022-11-25T19:03:21.355Z,5.10
2022-11-25T19:05:51.383Z,6.17
2022-11-25T19:08:19.436Z,5.17
2022-11-25T19:10:51.816Z,4.90
2022-11-25T19:13:23.286Z,4.90
2022-11-25T19:19:57.967Z,5.00
2022-11-25T19:23:01.826Z,4.40
2022-11-25T19:26:07.622Z,5.57
2022-11-25T19:37:33.886Z,5.57
2022-11-25T19:40:13.184Z,5.70
2022-11-25T19:42:57.237Z,5.40
2022-11-25T19:46:02.786Z,6.07
2022-11-25T19:49:05.318Z,10.90
2022-11-25T20:00:02.115Z,9.20
2022-11-25T20:06:56.729Z,5.90
2022-11-25T20:18:22.475Z,6.30
2022-11-25T20:42:13.382Z,5.67
2022-11-25T20:45:01.238Z,4.80
2022-11-25T21:01:32.389Z,6.37
2022-11-25T21:04:49.497Z,5.43
2022-11-25T21:11:42.838Z,5.20
2022-11-25T21:28:56.763Z,4.93
2022-11-25T21:31:55.635Z,5.60
2022-11-25T21:42:37.200Z,4.17
2022-11-25T22:10:36.411Z,4.60
2022-11-25T22:36:35.078Z,3.47
2022-11-25T23:03:43.502Z,3.50
2022-11-25T23:06:11.907Z,3.30
2022-11-25T23:08:39.704Z,3.47
2022-11-25T23:11:07.833Z,3.50
2022-11-25T23:13:35.324Z,3.33
2022-11-25T23:16:05.504Z,3.50
2022-11-25T23:18:38.247Z,3.20
2022-11-25T23:21:06.733Z,3.90
2022-11-25T23:23:34.229Z,3.20
2022-11-25T23:26:01.784Z,3.40
2022-11-25T23:28:29.336Z,3.00
2022-11-25T23:30:58.261Z,2.83
2022-11-25T23:33:29.973Z,3.17
2022-11-25T23:35:58.456Z,2.70
2022-11-25T23:38:27.932Z,3.73
2022-11-25T23:40:55.532Z,3.30
2022-11-25T23:43:23.025Z,3.40
2022-11-25T23:45:53.800Z,2.97
2022-11-25T23:48:24.290Z,2.90
2022-11-25T23:50:55.120Z,3.63
2022-11-25T23:53:25.367Z,3.30
2022-11-25T23:55:53.105Z,3.10
2022-11-25T23:58:22.071Z,3.87
